Time;durP1;ratioP1;P1;durP2;ratioP2;P2;SDS_P1;SDS_P2;PMS_P1;PMS_P2;Temp;Humidity;BMP_temperature;BMP_pressure;BME280_temperature;BME280_humidity;BME280_pressure;Samples;Min_cycle;Max_cycle;Signal;HPM_P1;HPM_P2
2021/12/22 00:01:32;;;;;;;14.45;6.47;;;3.60;86.00;;;;;;5011375;28;20160;-67
2021/12/22 00:03:58;;;;;;;10.18;5.65;;;3.60;85.50;;;;;;5008633;28;20560;-67
2021/12/22 00:06:26;;;;;;;8.52;5.50;;;3.60;85.40;;;;;;5017493;28;20076;-67
2021/12/22 00:08:52;;;;;;;8.27;4.30;;;3.60;85.60;;;;;;5003585;28;20226;-68
2021/12/22 00:11:19;;;;;;;6.78;4.30;;;3.60;85.60;;;;;;5009441;28;20121;-68
2021/12/22 00:13:45;;;;;;;9.32;4.15;;;3.60;85.70;;;;;;5011839;28;20088;-68
2021/12/22 00:16:11;;;;;;;8.07;4.82;;;3.50;85.60;;;;;;5007777;28;20038;-66
2021/12/22 00:18:37;;;;;;;10.27;5.28;;;3.60;85.80;;;;;;5009790;28;20140;-66
2021/12/22 00:21:03;;;;;;;8.68;4.78;;;3.60;84.80;;;;;;5008706;28;20040;-66
2021/12/22 00:23:29;;;;;;;8.98;5.15;;;3.50;84.80;;;;;;5007709;28;20132;-66
2021/12/22 00:25:56;;;;;;;13.90;5.50;;;3.50;85.20;;;;;;5013346;28;20038;-67
2021/12/22 00:28:22;;;;;;;8.13;5.38;;;3.50;85.30;;;;;;5010766;28;20025;-67
2021/12/22 00:30:49;;;;;;;10.63;5.93;;;3.50;85.00;;;;;;5007770;28;20037;-67
2021/12/22 00:33:15;;;;;;;13.27;5.82;;;3.50;85.20;;;;;;5008921;28;20044;-67
2021/12/22 00:35:44;;;;;;;13.15;4.97;;;3.50;85.40;;;;;;5003925;28;20037;-67
2021/12/22 00:38:13;;;;;;;8.57;4.93;;;3.50;85.60;;;;;;5009904;28;20046;-67
2021/12/22 00:40:40;;;;;;;11.60;4.88;;;3.40;85.10;;;;;;5008567;28;20042;-68
2021/12/22 00:43:06;;;;;;;10.32;5.40;;;3.40;85.60;;;;;;5007801;28;20818;-67
2021/12/22 00:45:34;;;;;;;10.18;5.15;;;3.40;86.20;;;;;;5014174;28;20124;-67
2021/12/22 00:48:00;;;;;;;12.43;5.70;;;3.50;85.20;;;;;;5010875;28;20096;-67
2021/12/22 00:50:26;;;;;;;11.85;6.25;;;3.50;85.40;;;;;;5007978;28;20143;-67
2021/12/22 00:52:52;;;;;;;10.13;6.05;;;3.40;85.50;;;;;;5013175;28;20034;-67
2021/12/22 00:55:20;;;;;;;11.25;5.85;;;3.40;85.80;;;;;;5014686;28;20575;-67
2021/12/22 00:57:47;;;;;;;10.30;5.35;;;3.40;85.80;;;;;;5012944;28;20052;-67
2021/12/22 01:00:15;;;;;;;14.18;5.93;;;3.40;85.50;;;;;;5011624;28;20152;-68
2021/12/22 01:02:42;;;;;;;12.70;5.63;;;3.40;85.50;;;;;;5003277;28;20128;-67
2021/12/22 01:05:08;;;;;;;13.25;4.95;;;3.40;84.90;;;;;;5012290;28;20044;-67
2021/12/22 01:07:34;;;;;;;12.18;5.10;;;3.30;84.60;;;;;;5017828;28;20140;-67
2021/12/22 01:09:59;;;;;;;7.88;5.05;;;3.20;84.80;;;;;;5010191;28;20100;-67
2021/12/22 01:12:25;;;;;;;8.27;4.72;;;3.20;85.30;;;;;;5016994;28;20122;-67
2021/12/22 01:14:51;;;;;;;8.30;4.85;;;3.10;85.20;;;;;;5005476;28;20029;-67
2021/12/22 01:17:17;;;;;;;9.07;4.32;;;3.10;85.20;;;;;;5008133;28;20394;-67
2021/12/22 01:22:25;;;;;;;7.80;4.03;;;3.10;84.90;;;;;;5016282;28;20102;-67
2021/12/22 01:25:01;;;;;;;7.53;3.70;;;3.10;85.10;;;;;;5013905;28;20095;-67
2021/12/22 01:27:37;;;;;;;;;;;3.20;84.70;;;;;;5011526;28;20041;-67
2021/12/22 01:30:09;;;;;;;10.82;3.95;;;3.20;84.50;;;;;;5015930;28;19957;-67
2021/12/22 01:32:35;;;;;;;9.60;3.67;;;3.20;83.10;;;;;;5007910;28;20044;-67
2021/12/22 01:35:03;;;;;;;5.97;3.20;;;3.20;84.00;;;;;;5013724;28;20565;-67
2021/12/22 01:37:28;;;;;;;8.45;3.92;;;3.20;83.90;;;;;;5013405;28;20136;-67
2021/12/22 01:39:54;;;;;;;8.85;2.80;;;3.20;83.60;;;;;;5012570;28;20129;-67
2021/12/22 01:42:20;;;;;;;10.93;3.95;;;3.10;83.80;;;;;;5006098;28;20040;-67
2021/12/22 01:45:24;;;;;;;9.48;3.90;;;3.20;83.80;;;;;;5010731;28;20405;-67
2021/12/22 01:50:35;;;;;;;8.63;4.38;;;3.20;83.50;;;;;;5011227;28;20040;-67
2021/12/22 01:53:10;;;;;;;10.75;3.97;;;3.20;83.50;;;;;;5012552;28;20060;-68
2021/12/22 01:55:38;;;;;;;9.88;4.30;;;3.20;84.10;;;;;;5011575;28;20069;-67
2021/12/22 01:58:10;;;;;;;7.93;3.72;;;3.20;84.80;;;;;;5009995;28;20069;-67
2021/12/22 02:00:36;;;;;;;10.25;3.90;;;3.20;85.10;;;;;;5004059;28;20136;-67
2021/12/22 02:03:02;;;;;;;8.85;4.45;;;3.20;85.40;;;;;;5011082;28;20024;-67
2021/12/22 02:05:27;;;;;;;7.20;3.72;;;3.20;85.40;;;;;;5015703;28;20033;-67
2021/12/22 02:07:57;;;;;;;8.02;3.15;;;3.20;85.10;;;;;;5009142;28;20034;-67
2021/12/22 02:12:55;;;;;;;10.00;3.10;;;3.20;84.60;;;;;;5010076;28;20033;-67
2021/12/22 02:15:21;;;;;;;6.43;2.90;;;3.20;84.60;;;;;;5008711;28;20061;-67
2021/12/22 02:17:49;;;;;;;5.72;2.88;;;3.20;84.60;;;;;;5014437;28;20104;-67
2021/12/22 02:20:15;;;;;;;10.43;3.65;;;3.20;84.70;;;;;;5014531;28;20044;-68
2021/12/22 02:22:42;;;;;;;7.47;3.30;;;3.20;84.70;;;;;;5008788;28;20060;-67
2021/12/22 02:25:16;;;;;;;3.90;2.83;;;3.20;84.50;;;;;;5009065;28;20062;-68
2021/12/22 02:27:53;;;;;;;5.65;3.15;;;3.30;84.70;;;;;;5010665;28;20057;-67
2021/12/22 02:30:25;;;;;;;9.38;3.10;;;3.30;84.90;;;;;;5012126;28;20045;-67
2021/12/22 02:35:40;;;;;;;10.00;3.70;;;3.30;83.50;;;;;;5009672;28;20033;-68
2021/12/22 02:38:13;;;;;;;6.45;2.67;;;3.20;83.40;;;;;;5011905;28;20033;-67
2021/12/22 02:40:38;;;;;;;3.45;2.42;;;3.20;84.00;;;;;;5006961;28;20042;-67
2021/12/22 02:43:05;;;;;;;7.00;3.10;;;3.20;84.30;;;;;;5003766;28;20041;-67
2021/12/22 02:45:34;;;;;;;8.13;2.65;;;3.20;83.90;;;;;;5019434;28;20065;-67
2021/12/22 02:48:00;;;;;;;4.63;2.70;;;3.10;82.50;;;;;;5010903;28;20120;-67
2021/12/22 02:50:27;;;;;;;3.47;2.72;;;3.10;82.30;;;;;;5011446;28;20102;-67
2021/12/22 02:55:28;;;;;;;6.88;3.40;;;3.10;83.00;;;;;;5018883;28;20509;-68
2021/12/22 02:57:58;;;;;;;6.80;3.33;;;3.10;82.80;;;;;;5010639;28;20120;-67
2021/12/22 03:03:15;;;;;;;5.72;3.53;;;3.10;82.90;;;;;;5008955;28;20077;-67
2021/12/22 03:05:41;;;;;;;5.75;2.85;;;3.00;82.00;;;;;;5010252;28;20037;-68
2021/12/22 03:08:06;;;;;;;8.02;3.42;;;3.00;82.80;;;;;;5003579;28;20112;-67
2021/12/22 03:10:33;;;;;;;8.23;3.40;;;3.00;83.30;;;;;;5012336;28;20033;-67
2021/12/22 03:13:03;;;;;;;4.55;3.28;;;3.00;81.20;;;;;;5012897;28;20030;-68
2021/12/22 03:15:29;;;;;;;11.30;3.92;;;3.00;81.80;;;;;;5009314;28;20537;-67
2021/12/22 03:17:55;;;;;;;8.50;4.18;;;3.00;81.50;;;;;;5012340;28;20072;-67
2021/12/22 03:20:21;;;;;;;12.38;4.05;;;3.00;82.20;;;;;;5012914;28;20148;-67
2021/12/22 03:22:47;;;;;;;6.88;4.35;;;3.00;81.90;;;;;;5004189;28;20121;-68
2021/12/22 03:25:16;;;;;;;7.93;3.92;;;3.00;81.80;;;;;;5010650;28;20036;-67
2021/12/22 03:27:47;;;;;;;7.00;3.85;;;3.00;82.50;;;;;;5012730;28;20033;-68
2021/12/22 03:30:16;;;;;;;8.85;4.03;;;3.00;83.00;;;;;;5008991;28;20142;-68
2021/12/22 03:32:42;;;;;;;7.00;3.60;;;3.00;82.50;;;;;;5015198;28;20034;-67
2021/12/22 03:35:14;;;;;;;7.03;4.45;;;3.10;82.70;;;;;;5004678;28;20551;-67
2021/12/22 03:37:40;;;;;;;8.98;4.38;;;3.10;82.60;;;;;;5005323;28;20049;-67
2021/12/22 03:40:06;;;;;;;6.22;3.80;;;3.00;82.30;;;;;;5007646;28;20048;-67
2021/12/22 03:42:32;;;;;;;7.78;4.22;;;3.10;82.60;;;;;;5009421;28;20087;-67
2021/12/22 03:44:57;;;;;;;7.60;4.97;;;3.00;83.00;;;;;;5013069;28;20046;-68
2021/12/22 03:47:23;;;;;;;9.73;4.72;;;3.10;82.60;;;;;;5009004;28;20030;-68
2021/12/22 03:49:49;;;;;;;9.38;5.03;;;3.10;81.80;;;;;;5014472;28;20022;-67
2021/12/22 03:52:15;;;;;;;8.68;4.72;;;3.00;81.80;;;;;;5002661;28;20554;-67
2021/12/22 03:54:41;;;;;;;9.30;5.57;;;3.10;82.40;;;;;;5009512;28;20038;-68
2021/12/22 03:57:07;;;;;;;7.50;4.63;;;3.10;82.60;;;;;;5011732;28;20453;-67
2021/12/22 03:59:32;;;;;;;7.78;4.93;;;3.10;82.80;;;;;;5013556;28;20034;-67
2021/12/22 04:01:59;;;;;;;10.57;5.43;;;3.10;82.80;;;;;;5006280;28;20042;-67
2021/12/22 04:04:25;;;;;;;10.13;5.75;;;3.10;82.70;;;;;;5015978;28;20117;-67
2021/12/22 04:06:51;;;;;;;12.45;5.38;;;3.10;82.30;;;;;;5003324;28;20034;-67
2021/12/22 04:09:17;;;;;;;15.20;5.10;;;3.10;82.30;;;;;;5011471;28;20041;-67
2021/12/22 04:11:44;;;;;;;12.82;5.72;;;3.10;82.10;;;;;;5015345;28;20116;-68
2021/12/22 04:14:12;;;;;;;15.65;6.30;;;3.10;81.40;;;;;;5007601;28;20038;-67
2021/12/22 04:16:38;;;;;;;11.57;6.18;;;3.00;81.30;;;;;;5005937;28;20065;-67
2021/12/22 04:19:04;;;;;;;11.45;5.88;;;3.00;81.30;;;;;;5005567;28;20052;-67
2021/12/22 04:21:30;;;;;;;10.07;6.03;;;2.90;81.40;;;;;;5011997;28;20037;-67
2021/12/22 04:23:57;;;;;;;13.18;6.20;;;2.80;81.00;;;;;;5014970;28;20036;-68
2021/12/22 04:26:23;;;;;;;13.13;5.80;;;2.80;81.60;;;;;;5004316;28;20578;-67
2021/12/22 04:28:48;;;;;;;12.40;5.43;;;2.80;82.00;;;;;;5010611;28;20053;-67
2021/12/22 04:31:14;;;;;;;10.02;5.97;;;2.80;82.20;;;;;;5019180;28;20033;-67
2021/12/22 04:33:40;;;;;;;10.30;4.78;;;2.80;80.80;;;;;;5005954;28;20045;-68
2021/12/22 04:36:06;;;;;;;9.35;5.22;;;2.60;81.20;;;;;;5009184;28;20129;-68
2021/12/22 04:38:32;;;;;;;10.13;5.68;;;2.50;82.00;;;;;;5017889;28;20044;-67
2021/12/22 04:40:57;;;;;;;11.88;5.50;;;2.50;82.30;;;;;;5011019;28;20070;-68
2021/12/22 04:43:23;;;;;;;11.32;5.43;;;2.40;82.60;;;;;;5010185;28;20026;-68
2021/12/22 04:45:49;;;;;;;8.65;4.75;;;2.30;82.60;;;;;;5012939;28;20029;-67
2021/12/22 04:48:15;;;;;;;10.85;5.97;;;2.20;82.70;;;;;;5004789;28;20022;-67
2021/12/22 04:50:40;;;;;;;9.60;4.80;;;2.10;83.10;;;;;;5017552;28;20132;-67
2021/12/22 04:53:14;;;;;;;7.28;4.15;;;2.10;83.70;;;;;;5016708;28;20031;-68
2021/12/22 04:55:40;;;;;;;9.52;4.70;;;2.00;83.90;;;;;;5008768;28;20113;-67
2021/12/22 04:58:06;;;;;;;9.18;4.85;;;1.90;84.20;;;;;;5013838;28;20064;-67
2021/12/22 05:00:36;;;;;;;12.60;4.40;;;1.80;84.60;;;;;;4992868;28;20030;-67
2021/12/22 05:03:02;;;;;;;8.05;4.75;;;1.80;85.00;;;;;;5017610;28;20850;-67
2021/12/22 05:05:28;;;;;;;6.68;4.57;;;1.70;85.30;;;;;;5017506;28;20029;-67
2021/12/22 05:07:54;;;;;;;10.57;4.70;;;1.70;85.50;;;;;;5011121;28;20052;-67
2021/12/22 05:10:21;;;;;;;8.90;4.18;;;1.60;85.80;;;;;;5018449;28;20685;-67
2021/12/22 05:12:48;;;;;;;8.57;5.13;;;1.60;86.40;;;;;;5008862;28;20045;-68
2021/12/22 05:15:17;;;;;;;11.82;5.53;;;1.50;86.90;;;;;;5017835;28;20493;-68
2021/12/22 05:20:10;;;;;;;8.70;4.68;;;1.40;87.30;;;;;;5016719;28;20192;-68
2021/12/22 05:22:35;;;;;;;8.60;5.30;;;1.40;87.40;;;;;;5009619;28;20854;-68
2021/12/22 05:25:03;;;;;;;8.80;4.55;;;1.40;87.40;;;;;;5015812;28;20033;-68
2021/12/22 05:27:29;;;;;;;11.55;5.20;;;1.40;87.30;;;;;;5008806;28;20046;-68
2021/12/22 05:29:56;;;;;;;10.20;5.15;;;1.30;87.50;;;;;;5008166;28;20029;-67
2021/12/22 05:32:25;;;;;;;9.73;4.60;;;1.30;87.70;;;;;;5015363;28;20114;-67
2021/12/22 05:34:52;;;;;;;7.75;4.70;;;1.30;87.70;;;;;;5009992;28;20046;-67
2021/12/22 05:37:18;;;;;;;7.93;5.20;;;1.20;87.80;;;;;;5012556;28;20797;-67
2021/12/22 05:39:44;;;;;;;12.35;5.43;;;1.20;88.00;;;;;;5014849;28;20030;-67
2021/12/22 05:42:09;;;;;;;9.98;4.88;;;1.10;87.90;;;;;;5005604;28;20033;-68
2021/12/22 05:44:35;;;;;;;9.88;4.93;;;1.10;87.80;;;;;;5009647;28;20087;-67
2021/12/22 05:47:01;;;;;;;7.60;4.40;;;1.10;87.90;;;;;;5013244;28;20496;-67
2021/12/22 05:49:26;;;;;;;10.82;5.00;;;1.00;88.00;;;;;;5013088;28;20378;-67
2021/12/22 05:51:52;;;;;;;10.30;4.88;;;1.00;88.30;;;;;;5014942;28;20037;-67
2021/12/22 05:54:18;;;;;;;9.98;4.60;;;1.00;88.70;;;;;;5009748;28;20075;-67
2021/12/22 05:56:43;;;;;;;10.40;4.88;;;1.00;89.00;;;;;;5007025;28;20495;-68
2021/12/22 05:59:09;;;;;;;12.10;4.50;;;1.00;88.90;;;;;;5007317;28;20773;-67
2021/12/22 06:01:35;;;;;;;12.27;5.57;;;1.00;89.30;;;;;;4997504;28;20068;-67
2021/12/22 06:04:02;;;;;;;11.43;4.82;;;0.90;89.30;;;;;;5013008;28;20117;-67
2021/12/22 06:06:28;;;;;;;15.43;5.18;;;0.90;89.50;;;;;;5011022;28;20118;-67
2021/12/22 06:08:54;;;;;;;8.07;4.30;;;0.90;89.50;;;;;;5006407;28;20108;-67
2021/12/22 06:11:19;;;;;;;8.02;4.40;;;0.90;89.50;;;;;;5010156;28;20121;-67
2021/12/22 06:13:45;;;;;;;13.32;5.50;;;0.90;89.80;;;;;;5008853;28;20068;-67
2021/12/22 06:16:11;;;;;;;10.70;5.57;;;0.90;89.80;;;;;;5014969;28;20041;-67
2021/12/22 06:18:42;;;;;;;11.20;4.75;;;0.80;89.40;;;;;;5005735;28;20874;-67
2021/12/22 06:21:09;;;;;;;13.00;6.20;;;0.80;89.60;;;;;;5010450;28;20048;-67
2021/12/22 06:23:35;;;;;;;11.57;5.18;;;0.80;89.80;;;;;;5012508;28;20033;-67
2021/12/22 06:26:00;;;;;;;11.10;4.70;;;0.80;90.10;;;;;;5011046;28;20124;-67
2021/12/22 06:28:26;;;;;;;8.73;4.88;;;0.70;90.00;;;;;;5005177;28;20033;-68
2021/12/22 06:30:52;;;;;;;11.60;5.13;;;0.70;90.00;;;;;;5013898;28;20029;-67
2021/12/22 06:33:17;;;;;;;12.82;5.63;;;0.70;89.80;;;;;;5006273;28;20049;-67
2021/12/22 06:35:46;;;;;;;11.60;5.47;;;0.70;90.00;;;;;;5006600;28;20378;-67
2021/12/22 06:38:13;;;;;;;13.23;5.78;;;0.70;90.20;;;;;;5009612;28;20053;-67
2021/12/22 06:40:39;;;;;;;9.02;4.72;;;0.70;90.30;;;;;;5009523;28;20848;-67
2021/12/22 06:43:05;;;;;;;14.70;6.22;;;0.60;90.30;;;;;;5006253;28;20025;-67
2021/12/22 06:45:30;;;;;;;8.38;4.50;;;0.60;90.30;;;;;;5011527;28;20033;-67
2021/12/22 06:47:56;;;;;;;12.18;5.45;;;0.60;90.30;;;;;;5009478;28;20037;-68
2021/12/22 06:50:22;;;;;;;10.05;4.85;;;0.60;90.30;;;;;;5004695;28;20030;-68
2021/12/22 06:52:48;;;;;;;10.30;5.43;;;0.60;90.30;;;;;;5009142;28;20073;-68
2021/12/22 06:55:13;;;;;;;15.88;6.43;;;0.60;90.40;;;;;;5011011;28;20052;-67
2021/12/22 06:57:39;;;;;;;13.10;4.95;;;0.60;90.50;;;;;;5010574;28;20040;-67
2021/12/22 07:00:07;;;;;;;11.35;4.95;;;0.60;90.50;;;;;;5009388;28;20494;-68
2021/12/22 07:02:37;;;;;;;13.52;5.50;;;0.60;90.50;;;;;;5014925;28;20075;-67
2021/12/22 07:05:04;;;;;;;13.73;5.90;;;0.60;90.60;;;;;;5006476;28;20061;-67
2021/12/22 07:07:30;;;;;;;15.55;6.35;;;0.60;90.90;;;;;;5012745;28;20034;-67
2021/12/22 07:09:56;;;;;;;10.43;5.82;;;0.60;90.60;;;;;;5015656;28;20462;-67
2021/12/22 07:12:22;;;;;;;10.52;5.05;;;0.60;90.60;;;;;;5006759;28;20038;-67
2021/12/22 07:14:47;;;;;;;11.75;5.82;;;0.60;90.80;;;;;;5011210;28;20099;-68
2021/12/22 07:17:13;;;;;;;13.13;5.88;;;0.50;90.80;;;;;;5012545;28;20045;-67
2021/12/22 07:19:39;;;;;;;12.60;6.43;;;0.50;90.90;;;;;;5010213;28;20046;-68
2021/12/22 07:22:05;;;;;;;14.05;6.85;;;0.50;91.10;;;;;;5013133;28;20048;-67
2021/12/22 07:24:33;;;;;;;15.30;6.50;;;0.50;91.00;;;;;;5008631;28;20057;-67
2021/12/22 07:26:58;;;;;;;11.90;5.93;;;0.50;91.20;;;;;;5015047;28;20620;-67
2021/12/22 07:29:24;;;;;;;13.93;6.47;;;0.50;91.40;;;;;;5015794;28;20048;-67
2021/12/22 07:31:51;;;;;;;12.32;5.60;;;0.50;91.50;;;;;;5011456;28;20033;-67
2021/12/22 07:34:22;;;;;;;13.38;6.22;;;0.60;91.40;;;;;;5003910;28;20057;-68
2021/12/22 07:37:00;;;;;;;15.55;6.90;;;0.60;91.60;;;;;;5001653;28;20045;-66
2021/12/22 07:39:26;;;;;;;10.77;6.47;;;0.60;91.50;;;;;;5005672;28;20041;-67
2021/12/22 07:41:52;;;;;;;17.50;6.85;;;0.60;91.50;;;;;;5007238;28;20076;-67
2021/12/22 07:44:18;;;;;;;15.05;6.82;;;0.60;91.50;;;;;;5012370;28;20017;-67
2021/12/22 07:46:44;;;;;;;15.35;7.38;;;0.60;91.40;;;;;;5010689;28;20513;-67
2021/12/22 07:49:09;;;;;;;12.05;5.95;;;0.70;91.40;;;;;;5002136;28;20158;-68
2021/12/22 07:51:35;;;;;;;18.38;6.85;;;0.70;91.40;;;;;;5009540;28;20037;-68
2021/12/22 07:54:02;;;;;;;14.48;6.50;;;0.70;91.50;;;;;;5010424;28;20041;-68
2021/12/22 07:56:27;;;;;;;14.48;7.10;;;0.70;91.70;;;;;;5011818;28;20156;-69
2021/12/22 07:58:54;;;;;;;14.65;7.07;;;0.80;91.50;;;;;;5012448;28;20088;-67
2021/12/22 08:01:20;;;;;;;16.80;7.63;;;0.80;91.30;;;;;;5013625;28;20048;-67
2021/12/22 08:03:46;;;;;;;13.65;7.05;;;0.90;91.40;;;;;;5014783;28;20046;-67
2021/12/22 08:06:13;;;;;;;15.85;7.38;;;1.00;91.40;;;;;;5012139;28;20033;-68
2021/12/22 08:08:39;;;;;;;15.55;7.53;;;1.00;91.00;;;;;;5017686;28;20068;-68
2021/12/22 08:11:05;;;;;;;20.65;7.88;;;1.10;90.90;;;;;;5016936;28;20109;-68
2021/12/22 08:13:31;;;;;;;17.92;7.47;;;1.20;90.60;;;;;;5014770;28;20137;-69
2021/12/22 08:15:57;;;;;;;19.40;8.13;;;1.20;90.20;;;;;;5018705;28;20128;-69
2021/12/22 08:18:24;;;;;;;18.35;8.07;;;1.30;90.20;;;;;;5012454;28;20033;-69
2021/12/22 08:20:50;;;;;;;15.70;7.85;;;1.30;90.30;;;;;;5008009;28;20041;-69
2021/12/22 08:23:18;;;;;;;15.55;8.20;;;1.40;90.30;;;;;;5020035;28;20033;-69
2021/12/22 08:25:45;;;;;;;15.02;7.65;;;1.60;90.20;;;;;;5008315;28;20045;-69
2021/12/22 08:28:10;;;;;;;15.55;7.65;;;1.90;89.20;;;;;;5015239;28;20025;-68
2021/12/22 08:30:37;;;;;;;21.77;8.60;;;2.20;88.00;;;;;;4994968;28;20418;-68
2021/12/22 08:33:09;;;;;;;14.82;8.18;;;2.60;85.90;;;;;;5012859;28;20037;-68
2021/12/22 08:38:50;;;;;;;17.77;7.60;;;2.80;84.20;;;;;;5004642;28;20037;-69
2021/12/22 08:41:06;;;;;;;17.75;7.72;;;2.90;82.80;;;;;;5017939;28;20038;-68
2021/12/22 08:43:32;;;;;;;16.45;8.15;;;2.90;82.80;;;;;;5010702;28;20083;-68
2021/12/22 08:45:58;;;;;;;24.17;8.57;;;2.90;83.10;;;;;;5013235;28;20552;-68
2021/12/22 08:48:24;;;;;;;22.73;9.02;;;2.90;83.40;;;;;;5012332;28;20083;-68
2021/12/22 08:50:49;;;;;;;19.83;9.00;;;2.90;83.20;;;;;;5016645;28;20021;-68
2021/12/22 08:53:15;;;;;;;18.67;8.82;;;2.80;83.50;;;;;;5013795;28;20504;-69
2021/12/22 08:55:41;;;;;;;17.58;9.77;;;2.80;84.20;;;;;;5008332;28;20056;-69
2021/12/22 08:58:06;;;;;;;23.42;11.27;;;2.80;84.10;;;;;;5017439;28;20040;-68
2021/12/22 09:00:33;;;;;;;20.15;9.77;;;2.80;82.70;;;;;;5011066;28;20033;-68
2021/12/22 09:02:59;;;;;;;20.10;10.93;;;2.90;82.90;;;;;;5009979;28;20113;-68
2021/12/22 09:05:25;;;;;;;20.48;10.25;;;3.10;81.30;;;;;;5014918;28;20490;-67
2021/12/22 09:07:51;;;;;;;22.08;10.52;;;3.30;81.40;;;;;;5011125;28;20080;-69
2021/12/22 09:10:17;;;;;;;23.42;11.57;;;3.60;79.70;;;;;;5016387;28;20083;-67
2021/12/22 09:12:43;;;;;;;22.27;9.98;;;3.80;79.00;;;;;;5013318;28;20910;-67
2021/12/22 09:15:08;;;;;;;21.58;10.68;;;3.90;77.30;;;;;;5013592;28;20176;-67
2021/12/22 09:17:34;;;;;;;23.17;10.63;;;4.10;76.50;;;;;;5009518;28;20037;-67
2021/12/22 09:20:00;;;;;;;28.15;10.93;;;4.50;76.60;;;;;;5015221;28;20378;-67
2021/12/22 09:22:26;;;;;;;19.70;10.90;;;4.90;73.10;;;;;;5014782;28;20121;-68
2021/12/22 09:24:52;;;;;;;20.40;10.60;;;5.30;72.60;;;;;;5010897;28;20671;-67
2021/12/22 09:27:18;;;;;;;18.63;10.15;;;5.90;69.90;;;;;;5006887;28;20477;-67
2021/12/22 09:29:44;;;;;;;21.17;10.13;;;6.40;66.80;;;;;;5006734;28;20045;-68
2021/12/22 09:32:14;;;;;;;21.33;11.20;;;6.70;65.40;;;;;;5010022;28;20044;-68
2021/12/22 09:34:45;;;;;;;23.83;10.32;;;6.90;64.50;;;;;;5007335;28;20041;-67
2021/12/22 09:37:11;;;;;;;19.08;10.25;;;7.30;63.10;;;;;;5008298;28;20513;-66
2021/12/22 09:39:38;;;;;;;23.10;10.70;;;7.60;61.40;;;;;;5011659;28;20566;-67
2021/12/22 09:42:04;;;;;;;23.13;11.40;;;7.70;59.80;;;;;;5004836;28;20145;-68
2021/12/22 09:44:33;;;;;;;22.17;10.68;;;7.70;59.70;;;;;;5014925;28;20075;-68
2021/12/22 09:46:59;;;;;;;21.92;10.93;;;7.70;59.70;;;;;;5009075;28;20513;-68
2021/12/22 09:52:21;;;;;;;19.52;9.80;;;7.40;59.80;;;;;;5006976;28;20038;-66
2021/12/22 09:54:50;;;;;;;19.27;10.68;;;7.40;60.60;;;;;;5005618;28;20113;-66
2021/12/22 09:57:18;;;;;;;23.80;11.10;;;7.30;60.90;;;;;;5003540;28;20707;-68
2021/12/22 09:59:49;;;;;;;19.80;10.50;;;7.30;59.90;;;;;;5011751;28;20037;-68
2021/12/22 10:02:17;;;;;;;20.90;11.05;;;7.30;59.30;;;;;;5010601;28;20049;-68
2021/12/22 10:04:44;;;;;;;17.73;9.63;;;7.00;60.30;;;;;;5011117;28;20052;-66
2021/12/22 10:07:17;;;;;;;21.27;10.90;;;7.10;61.10;;;;;;5011040;28;20141;-68
2021/12/22 10:09:44;;;;;;;20.27;11.15;;;7.10;60.70;;;;;;5011483;28;20080;-68
2021/12/22 10:12:15;;;;;;;19.83;10.02;;;7.00;60.80;;;;;;5013859;28;20158;-67
2021/12/22 10:14:55;;;;;;;26.48;11.27;;;7.10;60.80;;;;;;5009297;28;20034;-66
2021/12/22 10:17:36;;;;;;;19.83;9.50;;;7.00;59.80;;;;;;5015172;28;20038;-68
2021/12/22 10:20:22;;;;;;;22.40;10.85;;;7.20;61.10;;;;;;5006773;28;20042;-70
2021/12/22 10:22:50;;;;;;;18.35;10.20;;;7.00;59.80;;;;;;5026662;28;20045;-65
2021/12/22 10:25:22;;;;;;;18.67;10.55;;;6.50;61.20;;;;;;5009636;28;20083;-67
2021/12/22 10:28:00;;;;;;;18.80;10.77;;;6.50;62.20;;;;;;5008362;28;20550;-68
2021/12/22 10:30:45;;;;;;;20.52;10.57;;;6.60;61.50;;;;;;5002645;28;20038;-67
2021/12/22 10:33:17;;;;;;;21.02;10.43;;;6.40;63.00;;;;;;5014272;28;20029;-67
2021/12/22 10:35:45;;;;;;;18.80;10.07;;;6.20;63.30;;;;;;5009135;28;20046;-67
2021/12/22 10:38:13;;;;;;;20.60;10.27;;;6.00;64.00;;;;;;5008595;28;20721;-67
2021/12/22 10:40:42;;;;;;;20.98;11.55;;;5.80;65.20;;;;;;5014165;28;20176;-66
2021/12/22 10:43:16;;;;;;;20.38;10.27;;;5.60;65.40;;;;;;5011167;28;20038;-67
2021/12/22 10:45:41;;;;;;;18.88;10.20;;;5.30;67.40;;;;;;5007475;28;20057;-68
2021/12/22 10:50:55;;;;;;;18.98;10.15;;;4.90;68.50;;;;;;5009794;28;20034;-67
2021/12/22 10:53:21;;;;;;;20.13;10.25;;;4.90;69.80;;;;;;5004784;28;20565;-67
2021/12/22 10:55:53;;;;;;;17.77;10.27;;;4.80;69.90;;;;;;5005296;28;20109;-67
2021/12/22 10:58:33;;;;;;;23.98;10.60;;;4.80;70.20;;;;;;5010030;28;20112;-68
2021/12/22 11:01:11;;;;;;;17.52;10.48;;;4.80;69.50;;;;;;5008879;28;20041;-67
2021/12/22 11:03:45;;;;;;;20.67;9.60;;;4.80;68.90;;;;;;5004119;28;20569;-67
2021/12/22 11:06:23;;;;;;;19.50;9.95;;;4.70;69.60;;;;;;5008499;28;20041;-68
2021/12/22 11:09:13;;;;;;;19.30;9.50;;;4.80;69.50;;;;;;5008630;28;20038;-68
2021/12/22 11:11:49;;;;;;;20.23;10.35;;;4.90;69.30;;;;;;5010441;28;20034;-69
2021/12/22 11:14:16;;;;;;;;;;;5.00;68.30;;;;;;5009392;28;20043;-69
2021/12/22 11:16:57;;;;;;;16.92;9.35;;;5.20;68.20;;;;;;5013248;28;19966;-67
2021/12/22 11:19:25;;;;;;;21.00;10.23;;;5.10;69.10;;;;;;5013267;28;20033;-68
2021/12/22 11:22:03;;;;;;;19.55;10.52;;;5.00;68.60;;;;;;5009240;28;20131;-67
2021/12/22 11:24:31;;;;;;;20.50;10.70;;;5.00;68.90;;;;;;5012384;28;20541;-67
2021/12/22 11:26:57;;;;;;;22.25;9.65;;;4.90;70.40;;;;;;5011946;28;20050;-68
2021/12/22 11:29:24;;;;;;;24.15;11.45;;;4.80;69.60;;;;;;5007402;28;20038;-68
2021/12/22 11:31:51;;;;;;;24.33;10.13;;;4.90;69.60;;;;;;5007647;28;20774;-68
2021/12/22 11:34:19;;;;;;;18.13;9.80;;;4.80;71.10;;;;;;5008229;28;20026;-67
2021/12/22 11:36:46;;;;;;;19.33;10.52;;;4.80;69.90;;;;;;4993643;28;20073;-66
2021/12/22 11:39:13;;;;;;;18.30;10.18;;;4.80;70.30;;;;;;5007923;28;20044;-66
2021/12/22 11:41:44;;;;;;;27.02;14.27;;;4.90;70.40;;;;;;5004658;28;20121;-67
2021/12/22 11:44:10;;;;;;;23.05;12.77;;;5.00;70.60;;;;;;5012683;28;20068;-66
2021/12/22 11:46:40;;;;;;;33.85;16.92;;;5.10;70.60;;;;;;5009540;28;20104;-67
2021/12/22 11:49:06;;;;;;;31.27;14.32;;;5.20;70.80;;;;;;5016481;28;20446;-66
2021/12/22 11:51:34;;;;;;;29.85;15.10;;;5.30;70.00;;;;;;5011190;28;20045;-65
2021/12/22 11:54:07;;;;;;;23.20;10.20;;;5.30;69.20;;;;;;5007756;28;20673;-65
2021/12/22 11:56:41;;;;;;;33.67;15.77;;;5.30;68.50;;;;;;5016018;28;20080;-67
2021/12/22 11:59:29;;;;;;;30.55;15.75;;;5.30;68.40;;;;;;5018171;28;20116;-66
2021/12/22 12:02:20;;;;;;;19.63;10.90;;;5.20;69.00;;;;;;5017735;28;20672;-66
2021/12/22 12:04:51;;;;;;;20.20;10.10;;;5.20;68.50;;;;;;5013946;28;20040;-66
2021/12/22 12:07:55;;;;;;;22.90;12.02;;;5.10;69.40;;;;;;5009620;28;20030;-66
2021/12/22 12:10:33;;;;;;;18.88;10.05;;;5.10;69.60;;;;;;5007860;28;20129;-68
2021/12/22 12:13:05;;;;;;;20.38;10.43;;;5.20;69.10;;;;;;4995862;28;20038;-69
2021/12/22 12:22:23;;;;;;;20.67;11.00;;;5.00;69.50;;;;;;5006119;28;20038;-66
2021/12/22 12:25:12;;;;;;;20.63;9.95;;;5.00;68.30;;;;;;5009631;28;20444;-66
2021/12/22 12:27:51;;;;;;;20.00;10.25;;;5.00;67.80;;;;;;5007881;28;20038;-66
2021/12/22 12:30:21;;;;;;;20.23;10.32;;;4.90;68.30;;;;;;5005705;28;20034;-68
2021/12/22 12:32:48;;;;;;;23.77;11.30;;;4.80;68.80;;;;;;5016968;28;20093;-67
2021/12/22 12:35:23;;;;;;;20.73;10.57;;;4.80;68.70;;;;;;5013766;28;20038;-68
2021/12/22 12:38:01;;;;;;;19.10;10.35;;;4.80;69.70;;;;;;5006826;28;20037;-68
2021/12/22 12:40:54;;;;;;;23.88;11.18;;;4.80;69.60;;;;;;5009396;28;20033;-68
2021/12/22 12:43:40;;;;;;;18.65;9.63;;;4.70;70.00;;;;;;5011083;28;20041;-67
2021/12/22 12:46:21;;;;;;;18.27;9.77;;;4.70;70.30;;;;;;5009766;28;20789;-67
2021/12/22 12:48:48;;;;;;;19.95;8.95;;;4.70;69.70;;;;;;5009755;28;20117;-66
2021/12/22 12:51:17;;;;;;;18.55;9.70;;;4.70;69.80;;;;;;5012949;28;20033;-67
2021/12/22 12:53:49;;;;;;;20.42;9.30;;;4.80;68.70;;;;;;5013990;28;20104;-67
2021/12/22 12:56:18;;;;;;;19.70;8.82;;;4.80;69.20;;;;;;5013007;28;20099;-69
2021/12/22 12:59:01;;;;;;;23.48;10.80;;;4.80;68.60;;;;;;5011694;28;20037;-67
2021/12/22 13:01:50;;;;;;;18.45;9.65;;;4.80;68.40;;;;;;5015312;28;20048;-67
2021/12/22 13:04:18;;;;;;;18.95;9.73;;;4.70;70.00;;;;;;5016830;28;20087;-67
2021/12/22 13:06:45;;;;;;;17.10;9.35;;;4.70;69.40;;;;;;5010199;28;20759;-67
2021/12/22 13:09:24;;;;;;;18.95;9.60;;;4.70;69.70;;;;;;5011145;28;20041;-67
2021/12/22 13:12:02;;;;;;;20.92;10.07;;;4.70;69.50;;;;;;5009322;28;20040;-67
2021/12/22 13:17:19;;;;;;;18.75;9.60;;;4.70;69.50;;;;;;5014914;28;20116;-68
2021/12/22 13:19:47;;;;;;;19.80;9.90;;;4.70;69.60;;;;;;5009419;28;20025;-68
2021/12/22 13:22:19;;;;;;;21.17;9.75;;;4.70;69.80;;;;;;5018529;28;20037;-68
2021/12/22 13:24:45;;;;;;;15.25;8.15;;;4.70;69.50;;;;;;5009120;28;20045;-67
2021/12/22 13:27:11;;;;;;;16.38;8.50;;;4.70;69.60;;;;;;5014544;28;20034;-68
2021/12/22 13:29:39;;;;;;;16.10;8.70;;;4.70;69.40;;;;;;5012180;28;20056;-69
2021/12/22 13:32:10;;;;;;;16.20;8.43;;;4.70;70.20;;;;;;5003017;28;20041;-67